createdAt,value
2023-07-12T00:03:33.922Z,51.57
2023-07-12T00:08:35.340Z,51.73
2023-07-12T00:13:36.829Z,51.85
2023-07-12T00:18:38.294Z,52.21
2023-07-12T00:23:40.360Z,52.16
2023-07-12T00:28:41.829Z,51.94
2023-07-12T00:33:43.274Z,52.46
2023-07-12T00:38:44.803Z,52.23
2023-07-12T00:43:46.146Z,52.89
2023-07-12T00:48:48.553Z,53.16
2023-07-12T00:53:50.008Z,53.18
2023-07-12T00:58:55.008Z,53.09
2023-07-12T01:03:57.102Z,52.78
2023-07-12T01:09:04.322Z,53.83
2023-07-12T01:14:11.831Z,53.73
2023-07-12T01:19:13.206Z,53.40
2023-07-12T01:24:15.463Z,54.09
2023-07-12T01:29:17.539Z,53.64
2023-07-12T01:34:19.998Z,53.33
2023-07-12T01:39:21.489Z,53.89
2023-07-12T01:44:22.989Z,54.46
2023-07-12T01:49:24.495Z,54.12
2023-07-12T01:54:25.955Z,54.62
2023-07-12T01:59:27.408Z,54.25
2023-07-12T02:04:28.865Z,54.60
2023-07-12T02:09:36.435Z,54.05
2023-07-12T02:14:38.327Z,54.23
2023-07-12T02:19:39.925Z,54.86
2023-07-12T02:24:41.468Z,54.07
2023-07-12T02:29:43.000Z,54.59
2023-07-12T02:34:44.447Z,54.41
2023-07-12T02:39:47.211Z,54.80
2023-07-12T02:44:48.803Z,55.27
2023-07-12T02:49:50.821Z,55.70
2023-07-12T02:54:52.356Z,55.63
2023-07-12T02:59:53.858Z,55.25
2023-07-12T03:04:55.348Z,55.60
2023-07-12T03:09:57.971Z,55.32
2023-07-12T03:14:59.465Z,55.75
2023-07-12T03:20:00.936Z,55.48
2023-07-12T03:25:02.469Z,56.17
2023-07-12T03:30:04.408Z,55.69
2023-07-12T03:35:06.088Z,55.58
2023-07-12T03:40:08.887Z,55.49
2023-07-12T03:45:10.752Z,55.99
2023-07-12T03:50:12.242Z,55.35
2023-07-12T03:55:13.757Z,55.02
2023-07-12T04:00:15.486Z,55.61
2023-07-12T04:05:17.157Z,55.35
2023-07-12T04:10:18.921Z,55.40
2023-07-12T04:15:20.430Z,55.82
2023-07-12T04:20:21.838Z,56.16
2023-07-12T04:25:23.353Z,57.92
2023-07-12T04:30:25.080Z,57.98
2023-07-12T04:35:26.591Z,58.41
2023-07-12T04:40:28.150Z,58.69
2023-07-12T04:45:30.446Z,59.48
2023-07-12T04:50:33.661Z,59.30
2023-07-12T04:55:35.487Z,59.53
2023-07-12T05:00:37.042Z,59.73
2023-07-12T05:05:39.459Z,59.51
2023-07-12T05:10:41.120Z,59.46
2023-07-12T05:15:50.576Z,58.90
2023-07-12T05:20:53.498Z,58.51
2023-07-12T05:25:55.678Z,58.89
2023-07-12T05:30:57.165Z,58.52
2023-07-12T05:35:59.098Z,57.88
2023-07-12T05:41:01.013Z,57.16
2023-07-12T05:46:03.134Z,56.59
2023-07-12T05:51:05.383Z,55.80
2023-07-12T05:56:07.352Z,55.22
2023-07-12T06:01:09.059Z,54.59
2023-07-12T06:06:11.258Z,54.72
2023-07-12T06:11:12.998Z,54.01
2023-07-12T06:16:14.758Z,52.95
2023-07-12T06:21:16.351Z,52.68
2023-07-12T06:26:17.841Z,52.63
2023-07-12T06:31:19.391Z,52.39
2023-07-12T06:36:20.926Z,51.29
2023-07-12T06:41:22.493Z,51.48
2023-07-12T06:46:24.035Z,51.41
2023-07-12T06:51:25.610Z,50.83
2023-07-12T06:56:27.180Z,49.26
2023-07-12T07:01:28.663Z,50.22
2023-07-12T07:06:31.066Z,47.91
2023-07-12T07:11:32.545Z,47.97
2023-07-12T07:16:34.329Z,49.15
2023-07-12T07:21:35.929Z,47.44
2023-07-12T07:26:37.548Z,47.14
2023-07-12T07:31:39.234Z,46.25
2023-07-12T07:36:40.736Z,45.23
2023-07-12T07:41:42.247Z,45.09
2023-07-12T07:46:43.865Z,44.51
2023-07-12T07:51:45.760Z,44.34
2023-07-12T07:56:50.375Z,44.08
2023-07-12T08:01:51.874Z,43.74
2023-07-12T08:06:53.373Z,41.97
2023-07-12T08:11:54.873Z,42.74
2023-07-12T08:16:56.487Z,40.49
2023-07-12T08:21:58.159Z,40.78
2023-07-12T08:27:07.757Z,41.03
2023-07-12T08:32:11.181Z,39.77
2023-07-12T08:37:12.815Z,39.06
2023-07-12T08:42:20.513Z,39.47
2023-07-12T08:47:32.151Z,39.20
2023-07-12T08:52:34.760Z,39.70
2023-07-12T08:57:38.794Z,40.38
2023-07-12T09:02:40.294Z,39.89
2023-07-12T09:08:02.098Z,39.80
2023-07-12T09:13:03.607Z,40.05
2023-07-12T09:18:10.607Z,39.76
2023-07-12T09:23:13.112Z,39.90
2023-07-12T09:28:15.896Z,39.52
2023-07-12T09:33:20.304Z,39.95
2023-07-12T09:38:26.012Z,39.47
2023-07-12T09:43:28.527Z,39.03
2023-07-12T09:48:41.498Z,39.21
2023-07-12T09:53:48.526Z,39.06
2023-07-12T09:59:02.480Z,39.09
2023-07-12T10:04:22.822Z,38.84
2023-07-12T10:09:32.390Z,38.12
2023-07-12T10:14:37.861Z,36.61
2023-07-12T10:19:41.745Z,35.16
2023-07-12T10:24:46.326Z,34.61
2023-07-12T10:30:10.004Z,34.35
2023-07-12T10:35:20.457Z,34.21
2023-07-12T10:40:37.028Z,34.01
2023-07-12T10:45:39.578Z,33.91
2023-07-12T10:50:49.872Z,34.29
2023-07-12T10:56:09.403Z,34.47
2023-07-12T11:01:41.650Z,34.50
2023-07-12T11:07:03.237Z,34.62
2023-07-12T11:12:08.726Z,34.77
2023-07-12T11:17:10.473Z,34.12
2023-07-12T11:22:24.176Z,34.95
2023-07-12T11:27:42.437Z,35.93
2023-07-12T11:32:48.170Z,36.70
2023-07-12T11:37:53.980Z,40.30
2023-07-12T11:42:55.479Z,43.23
2023-07-12T11:47:58.970Z,44.61
2023-07-12T11:53:03.551Z,46.88
2023-07-12T11:58:21.282Z,48.04
2023-07-12T12:03:23.000Z,48.49
2023-07-12T12:08:28.157Z,49.64
2023-07-12T12:13:32.026Z,49.72
2023-07-12T12:18:36.171Z,51.59
2023-07-12T12:23:41.679Z,52.86
2023-07-12T12:28:50.185Z,53.00
2023-07-12T12:34:15.444Z,53.09
2023-07-12T12:39:21.380Z,53.59
2023-07-12T12:44:27.459Z,54.59
2023-07-12T12:54:40.879Z,54.47
2023-07-12T13:01:14.625Z,55.43
2023-07-12T13:17:02.040Z,56.41
2023-07-12T13:20:45.471Z,56.73
2023-07-12T13:25:52.009Z,57.27
2023-07-12T13:30:53.517Z,57.29
2023-07-12T13:46:10.688Z,57.27
2023-07-12T13:51:20.539Z,57.81
2023-07-12T14:01:42.340Z,56.64
2023-07-12T14:11:51.299Z,55.92
2023-07-12T14:16:53.092Z,56.60
2023-07-12T14:21:54.609Z,56.78
2023-07-12T14:26:56.099Z,55.54
2023-07-12T14:31:57.614Z,55.38
2023-07-12T14:37:00.176Z,54.91
2023-07-12T14:42:02.218Z,55.49
2023-07-12T14:47:05.576Z,54.83
2023-07-12T14:52:30.607Z,54.68
2023-07-12T14:58:08.357Z,54.34
2023-07-12T15:02:56.178Z,55.04
2023-07-12T15:07:57.958Z,55.48
2023-07-12T15:13:03.503Z,54.97
2023-07-12T15:18:05.302Z,54.71
2023-07-12T15:23:16.104Z,54.26
2023-07-12T15:28:17.784Z,54.29
2023-07-12T15:33:22.899Z,54.63
2023-07-12T15:38:26.429Z,55.17
2023-07-12T15:43:30.865Z,55.41
2023-07-12T15:48:34.820Z,55.24
2023-07-12T15:53:37.275Z,56.26
2023-07-12T15:58:38.774Z,57.28
2023-07-12T16:03:40.738Z,57.72
2023-07-12T16:08:42.902Z,57.66
2023-07-12T16:13:59.258Z,57.88
2023-07-12T16:19:02.108Z,58.74
2023-07-12T16:24:05.094Z,59.25
2023-07-12T16:29:07.969Z,59.72
2023-07-12T16:34:14.598Z,60.05
2023-07-12T16:39:16.276Z,60.20
2023-07-12T16:44:23.698Z,59.97
2023-07-12T16:49:25.171Z,59.75
2023-07-12T16:54:30.445Z,60.42
2023-07-12T16:59:32.901Z,60.17
2023-07-12T17:04:34.410Z,59.86
2023-07-12T17:09:35.924Z,60.58
2023-07-12T17:14:37.409Z,60.60
2023-07-12T17:19:39.060Z,61.00
2023-07-12T17:24:41.037Z,60.18
2023-07-12T17:29:43.835Z,60.52
2023-07-12T17:34:45.966Z,60.69
2023-07-12T17:39:58.852Z,60.49
2023-07-12T17:45:06.185Z,60.51
2023-07-12T17:50:08.059Z,60.82
2023-07-12T17:55:17.417Z,60.97
2023-07-12T18:00:19.085Z,61.18
2023-07-12T18:05:27.534Z,60.91
2023-07-12T18:10:29.137Z,60.80
2023-07-12T18:15:30.991Z,61.24
2023-07-12T18:20:32.503Z,61.13
2023-07-12T18:25:37.330Z,61.17
2023-07-12T18:30:40.636Z,61.15
2023-07-12T18:35:43.395Z,60.67
2023-07-12T18:40:44.939Z,60.70
2023-07-12T18:45:47.282Z,60.97
2023-07-12T18:50:48.962Z,60.32
2023-07-12T18:55:51.273Z,60.21
2023-07-12T19:00:52.977Z,60.25
2023-07-12T19:05:54.419Z,60.42
2023-07-12T19:10:56.029Z,60.26
2023-07-12T19:16:00.282Z,60.51
2023-07-12T19:21:03.316Z,59.46
2023-07-12T19:26:04.839Z,59.83
2023-07-12T19:31:19.774Z,59.53
2023-07-12T19:36:23.305Z,59.64
2023-07-12T19:41:29.150Z,59.76
2023-07-12T19:46:31.172Z,60.01
2023-07-12T19:51:36.870Z,59.53
2023-07-12T19:56:38.403Z,59.89
2023-07-12T20:01:40.793Z,59.61
2023-07-12T20:06:42.502Z,59.89
2023-07-12T20:11:43.986Z,59.75
2023-07-12T20:16:45.494Z,59.79
2023-07-12T20:21:47.005Z,60.02
2023-07-12T20:26:48.503Z,59.70
2023-07-12T20:32:00.131Z,59.96
2023-07-12T20:37:05.348Z,60.60
2023-07-12T20:42:08.298Z,61.21
2023-07-12T20:47:10.000Z,60.44
2023-07-12T20:52:11.633Z,60.31
2023-07-12T20:57:13.201Z,60.95
2023-07-12T21:02:14.956Z,60.71
2023-07-12T21:07:16.562Z,60.63
2023-07-12T21:12:18.117Z,60.73
2023-07-12T21:17:19.676Z,60.74
2023-07-12T21:22:21.458Z,60.91
2023-07-12T21:27:23.929Z,60.88
2023-07-12T21:32:25.517Z,61.21
2023-07-12T21:37:27.369Z,61.85
2023-07-12T21:42:28.918Z,61.61
2023-07-12T21:47:30.445Z,61.01
2023-07-12T21:52:31.999Z,61.61
2023-07-12T21:57:33.561Z,60.96
2023-07-12T22:02:35.196Z,61.56
2023-07-12T22:07:36.850Z,61.51
2023-07-12T22:12:39.394Z,61.15
2023-07-12T22:17:41.034Z,61.80
2023-07-12T22:22:44.499Z,61.42
2023-07-12T22:27:47.923Z,62.59
2023-07-12T22:32:49.594Z,62.04
2023-07-12T22:37:53.192Z,62.29
2023-07-12T22:42:55.172Z,61.75
2023-07-12T22:47:56.884Z,61.53
2023-07-12T22:53:01.760Z,62.08
2023-07-12T22:58:03.852Z,61.71
2023-07-12T23:03:05.539Z,62.39
2023-07-12T23:08:07.174Z,62.09
2023-07-12T23:13:08.763Z,61.80
2023-07-12T23:18:12.969Z,62.00
2023-07-12T23:23:20.455Z,62.10
2023-07-12T23:28:21.931Z,62.65
2023-07-12T23:33:23.404Z,62.44
2023-07-12T23:38:27.587Z,62.41
2023-07-12T23:43:29.117Z,62.56
2023-07-12T23:48:32.988Z,62.51
2023-07-12T23:53:34.453Z,62.94
2023-07-12T23:58:35.918Z,62.58
